Terminal Aerodrome Forecast
Issued by NWS

Home | Current Version | Previous Version | Text Only | Print | Product List | Glossary On
Versions: 1 2 3 4 5 6 7 8 9 10 11 12
000
FTUS44 KSJT 262323
TAFBBD
TAF
KBBD 262323Z 2700/2724 12008KT 5SM -TSRA BKN040CB BKN200
      TEMPO 2700/2702 2SM TSRA BKN025CB
     FM270300 VRB04KT P6SM BKN050
     FM271000 11003KT P6SM BKN020
      AMD NOT SKED=

USA.gov is the U.S. government's official web portal to all federal, state and local government web resources and services.